Goliah — WDD5908 — position and weather

sailwx.info

Track history (hours):
 
Tides and Currents Weather Stations Pressure Air Temp Water Temp Dewpoint Dewpoint Depression Visibility Wind Speed Wind Dir Waves Ship Positions

Goliah

More information available from US FCC via Universal Licensing System and Coast Guard Vessel Documentation Center.

Last reported at 2014-Sep-16 16:33 UTC. Time now 2014-Sep-16 17:31 UTC.
Position N 47°36' W 122°21'.

Length 33 m; draft 4.8 m.

Type: Tug. MMSI: 366898250.

Date/timePositionNaut miles runAvg speedWind from/ knotsBaromVisibWave heightAir tempDewpointWater temp
2014-Sep-16 16:33N 47°36' W 122°21'0 0.0
2014-Sep-16 16:33N 47°36' W 122°21'1 0.5
2014-Sep-16 15:31N 47°36' W 122°21'1 0.6
2014-Sep-16 14:32N 47°36' W 122°21'0 0.2
2014-Sep-16 13:33N 47°35' W 122°21'0 0.1
2014-Sep-16 13:28N 47°35' W 122°21'0 0.0
2014-Sep-16 12:33N 47°35' W 122°21'0 0.0
2014-Sep-16 12:33N 47°35' W 122°21'0 0.0
2014-Sep-16 11:33N 47°35' W 122°21'0 0.0
2014-Sep-16 11:33N 47°35' W 122°21'5 4.7
2014-Sep-16 10:33N 47°39' W 122°26'0 8.2
2014-Sep-16 10:33N 47°39' W 122°26'7 7.4
2014-Sep-16 09:33N 47°46' W 122°24'0 7.4
2014-Sep-16 09:32N 47°46' W 122°24'1 0.9
2014-Sep-16 08:33N 47°47' W 122°24'0 0.0
2014-Sep-16 08:32N 47°47' W 122°24'1 1.3
2014-Sep-16 07:33N 47°48' W 122°25'0 2.1
2014-Sep-16 07:31N 47°48' W 122°25'5 5.3
2014-Sep-16 06:33N 47°43' W 122°26'0 9.1
2014-Sep-16 06:31N 47°43' W 122°26'6 8.3
2014-Sep-16 05:51N 47°37' W 122°24'2 8.0
2014-Sep-16 05:33N 47°36' W 122°21'0 0.5
2014-Sep-16 04:33N 47°35' W 122°21'0 0.1
2014-Sep-16 04:31N 47°35' W 122°21'0 0.0
2014-Sep-16 03:33N 47°35' W 122°21'0 0.1
2014-Sep-16 03:31N 47°35' W 122°21'0 0.0
2014-Sep-16 02:29N 47°35' W 122°21'0 0.0
2014-Sep-16 02:19N 47°35' W 122°21'0 0.0
2014-Sep-16 01:34N 47°35' W 122°21'0 0.0
2014-Sep-16 01:33N 47°35' W 122°21'0 0.0
2014-Sep-16 00:32N 47°35' W 122°21'0 0.0
2014-Sep-16 00:29N 47°35' W 122°21'0 0.3
2014-Sep-15 23:33N 47°36' W 122°21'0 2.0
2014-Sep-15 23:33N 47°36' W 122°21'0 0.2
2014-Sep-15 22:33N 47°36' W 122°21'0 0.0
2014-Sep-15 22:33N 47°36' W 122°21'0 0.4
2014-Sep-15 21:31N 47°36' W 122°21'1 0.5
2014-Sep-15 20:32N 47°36' W 122°21'0 0.3
2014-Sep-15 19:33N 47°35' W 122°21'0 0.0
2014-Sep-15 18:33N 47°35' W 122°21'0 0.0
2014-Sep-15 17:26N 47°35' W 122°21'0 0.0
2014-Sep-15 16:33N 47°35' W 122°21'0 0.0
2014-Sep-15 16:25N 47°35' W 122°21'0 0.0
2014-Sep-15 15:33N 47°35' W 122°21'0 0.1
2014-Sep-15 15:30N 47°35' W 122°21'0 0.0
2014-Sep-15 14:33N 47°35' W 122°21'0 0.9
2014-Sep-15 14:30N 47°35' W 122°21'0 0.5
2014-Sep-15 13:33N 47°36' W 122°21'0 0.3
2014-Sep-15 13:25N 47°36' W 122°21'7 7.3
2014-Sep-15 12:31N 47°29' W 122°24'010.0
2014-Sep-15 12:30N 47°29' W 122°24'10 9.5
2014-Sep-15 11:25N 47°19' W 122°26'0 0.0
2014-Sep-15 11:25N 47°19' W 122°26'7 1.9
2014-Sep-15 07:35N 47°26' W 122°25'0 6.5
2014-Sep-15 07:32N 47°26' W 122°25'0 5.7
2014-Sep-15 07:30N 47°27' W 122°25'6 6.0
2014-Sep-15 06:33N 47°32' W 122°27'0 6.6
2014-Sep-15 06:29N 47°33' W 122°27'3 6.9
2014-Sep-15 05:59N 47°36' W 122°28'3 7.2
2014-Sep-15 05:33N 47°39' W 122°29'1010.0
2014-Sep-15 04:33N 47°49' W 122°28'110.3
2014-Sep-15 04:29N 47°50' W 122°28'1010.5
2014-Sep-15 03:33N 47°58' W 122°36'2311.6
2014-Sep-15 01:33N 48°20' W 122°47'1111.3
2014-Sep-15 00:34N 48°31' W 122°41'4 4.4
2014-Sep-14 23:34N 48°31' W 122°34'4 3.8
2014-Sep-14 22:33N 48°31' W 122°40'2 2.0
2014-Sep-14 21:33N 48°31' W 122°37'0 0.0
2014-Sep-14 20:33N 48°31' W 122°37'1 1.4
2014-Sep-14 19:34N 48°31' W 122°35'1 0.6
2014-Sep-14 18:34N 48°31' W 122°35'1 1.0
2014-Sep-14 17:34N 48°31' W 122°37'0 0.0
2014-Sep-14 16:34N 48°31' W 122°37'0 0.1
2014-Sep-14 15:34N 48°31' W 122°37'8 8.4
2014-Sep-14 14:33N 48°24' W 122°44'9 8.4
2014-Sep-14 13:27N 48°15' W 122°47'8 6.2
2014-Sep-14 12:08N 48°08' W 122°41'7 7.3
2014-Sep-14 11:13N 48°02' W 122°38'5 8.1
2014-Sep-14 10:34N 47°58' W 122°33'8 7.8
2014-Sep-14 09:33N 47°51' W 122°27'8 8.1
2014-Sep-14 08:33N 47°43' W 122°26'7 7.2
2014-Sep-14 07:33N 47°36' W 122°22'0 0.2
2014-Sep-14 06:33N 47°36' W 122°22'1 1.0
2014-Sep-14 05:33N 47°35' W 122°21'0 0.0
2014-Sep-14 04:33N 47°35' W 122°21'0 0.0
2014-Sep-14 03:34N 47°35' W 122°21'0 0.0
2014-Sep-14 02:33N 47°35' W 122°21'0 0.4
2014-Sep-14 01:33N 47°36' W 122°21'0 0.1
2014-Sep-13 21:33N 47°35' W 122°21'0 0.0
2014-Sep-13 20:34N 47°35' W 122°21'0 0.0
2014-Sep-13 19:34N 47°35' W 122°21'0 0.0
2014-Sep-13 18:33N 47°35' W 122°21'0 0.0
2014-Sep-13 17:33N 47°35' W 122°21'0 0.0
2014-Sep-13 16:33N 47°35' W 122°21'0 0.0
2014-Sep-13 15:33N 47°35' W 122°21'0 0.0
2014-Sep-13 14:33N 47°35' W 122°21'0 0.0
2014-Sep-13 13:33N 47°35' W 122°21'0 0.0
2014-Sep-13 12:34N 47°35' W 122°21'0 0.3
2014-Sep-13 11:34N 47°35' W 122°21'0 0.2
2014-Sep-13 10:33N 47°35' W 122°21'0 0.0
2014-Sep-13 09:34N 47°35' W 122°21'0 0.0
2014-Sep-13 08:34N 47°35' W 122°21'0 0.1
2014-Sep-13 07:34N 47°35' W 122°21'2 1.9
2014-Sep-13 06:33N 47°37' W 122°22'2 1.6
2014-Sep-13 05:34N 47°35' W 122°21'5 4.7
2014-Sep-13 04:34N 47°32' W 122°25'8 7.6
2014-Sep-13 03:34N 47°24' W 122°22'7 6.5
2014-Sep-13 02:33N 47°19' W 122°27'4 3.8
2014-Sep-13 01:33N 47°16' W 122°23'1 1.1
2014-Sep-13 00:34N 47°17' W 122°25'2 1.4
2014-Sep-12 23:27N 47°16' W 122°23'5 5.3
2014-Sep-12 22:34N 47°19' W 122°28'1010.1
2014-Sep-12 21:34N 47°29' W 122°24'7 6.8
2014-Sep-12 20:34N 47°35' W 122°21'0 0.0
2014-Sep-12 19:34N 47°35' W 122°21'0 0.0
2014-Sep-12 18:33N 47°35' W 122°21'0 0.0
2014-Sep-12 17:33N 47°35' W 122°21'0 0.0
2014-Sep-12 16:33N 47°35' W 122°21'0 0.0
2014-Sep-12 15:33N 47°35' W 122°21'0 0.0
2014-Sep-12 14:33N 47°35' W 122°21'0 0.0
2014-Sep-12 13:34N 47°35' W 122°21'0 0.0
2014-Sep-12 12:34N 47°35' W 122°21'0 0.0
2014-Sep-12 11:34N 47°35' W 122°21'0 0.0
2014-Sep-12 10:33N 47°35' W 122°21'0 0.0
2014-Sep-12 09:34N 47°35' W 122°21'0 0.0
2014-Sep-12 08:33N 47°35' W 122°21'0 0.0
2014-Sep-12 07:33N 47°35' W 122°21'0 0.0
2014-Sep-12 06:33N 47°35' W 122°21'0 0.2
2014-Sep-12 05:33N 47°35' W 122°21'2 1.7
2014-Sep-12 04:34N 47°36' W 122°23'10 9.8
2014-Sep-12 03:34N 47°27' W 122°23'9 9.3
2014-Sep-12 02:34N 47°18' W 122°27'3 3.0
2014-Sep-12 01:33N 47°16' W 122°23'2 1.7
2014-Sep-12 00:34N 47°17' W 122°25'9 9.3
2014-Sep-11 23:34N 47°26' W 122°23'10 9.6
2014-Sep-11 22:34N 47°36' W 122°21'6 5.6
2014-Sep-11 21:34N 47°39' W 122°28'1111.4
2014-Sep-11 20:34N 47°50' W 122°29'1110.8
2014-Sep-11 19:32N 47°60' W 122°37'10 9.3
2014-Sep-11 18:30N 48°08' W 122°44'9 9.4
2014-Sep-11 17:33N 48°17' W 122°48'1212.3
2014-Sep-11 16:33N 48°29' W 122°43'5 5.1
2014-Sep-11 15:33N 48°31' W 122°37'0 0.0
2014-Sep-11 14:33N 48°31' W 122°37'0 0.0
2014-Sep-11 13:33N 48°31' W 122°37'0 0.0
2014-Sep-11 12:33N 48°31' W 122°37'0 0.0
2014-Sep-11 11:33N 48°31' W 122°37'0 0.3
2014-Sep-11 10:33N 48°31' W 122°36'7 7.1
2014-Sep-11 09:33N 48°38' W 122°39'10 9.3
2014-Sep-11 08:31N 48°47' W 122°45'5 4.7
2014-Sep-11 07:33N 48°52' W 122°46'4 3.7
2014-Sep-11 06:33N 48°48' W 122°45'8 7.7
2014-Sep-11 05:33N 48°41' W 122°42'9 9.0
2014-Sep-11 04:33N 48°33' W 122°34'3 2.6
2014-Sep-11 03:33N 48°31' W 122°35'3 2.8
2014-Sep-11 02:33N 48°31' W 122°39'1 1.4
2014-Sep-11 01:33N 48°31' W 122°37'0 0.0
2014-Sep-11 00:33N 48°31' W 122°37'0 0.0
2014-Sep-10 23:33N 48°31' W 122°37'0 0.0
2014-Sep-10 22:33N 48°31' W 122°37'0 0.0
2014-Sep-10 21:33N 48°31' W 122°37'0 0.0
2014-Sep-10 20:33N 48°31' W 122°37'0 0.0
2014-Sep-10 19:33N 48°31' W 122°37'0 0.0
2014-Sep-10 18:33N 48°31' W 122°37'0 0.0
2014-Sep-10 17:33N 48°31' W 122°37'0 0.0
2014-Sep-10 16:33N 48°31' W 122°37'0 0.0
2014-Sep-10 15:33N 48°31' W 122°37'0 0.0
2014-Sep-10 14:33N 48°31' W 122°37'1 1.4
2014-Sep-10 13:33N 48°31' W 122°35'1 0.6
2014-Sep-10 12:33N 48°31' W 122°34'2 1.9
2014-Sep-10 11:33N 48°31' W 122°37'0 0.0
2014-Sep-10 10:33N 48°31' W 122°37'0 0.0
2014-Sep-10 09:33N 48°31' W 122°37'0 0.0
2014-Sep-10 08:33N 48°31' W 122°37'0 0.0
2014-Sep-10 07:33N 48°31' W 122°37'0 0.0
2014-Sep-10 06:33N 48°31' W 122°37'5 5.3
2014-Sep-10 05:33N 48°28' W 122°43'23 7.6
2014-Sep-10 02:31N 48°14' W 123°11'9 8.8
2014-Sep-10 01:33N 48°09' W 123°21'3 3.1
2014-Sep-10 00:33N 48°08' W 123°26'1 1.0
2014-Sep-09 23:33N 48°08' W 123°27'0 0.0
2014-Sep-09 22:33N 48°08' W 123°27'0 0.0
2014-Sep-09 21:33N 48°08' W 123°27'0 0.0
2014-Sep-09 20:33N 48°08' W 123°27'0 0.0
2014-Sep-09 19:32N 48°08' W 123°27'1 0.6
2014-Sep-09 18:33N 48°08' W 123°26'1 1.5
2014-Sep-09 17:33N 48°08' W 123°24'1 1.4
2014-Sep-09 16:32N 48°09' W 123°24'1 1.4
2014-Sep-09 15:33N 48°08' W 123°25'2 1.6
2014-Sep-09 14:33N 48°09' W 123°23'4 4.4
2014-Sep-09 13:33N 48°12' W 123°18'8 8.3
2014-Sep-09 12:33N 48°16' W 123°08'25 8.1
2014-Sep-09 09:29N 48°31' W 122°38'1 0.8
2014-Sep-09 08:27N 48°31' W 122°37'0 0.0
2014-Sep-09 06:33N 48°31' W 122°37'0 0.0
2014-Sep-09 05:33N 48°31' W 122°37'0 0.0
2014-Sep-09 04:33N 48°31' W 122°37'0 0.0
2014-Sep-09 03:33N 48°31' W 122°37'0 0.0
2014-Sep-09 02:33N 48°31' W 122°37'0 0.0
2014-Sep-09 01:33N 48°31' W 122°37'0 0.0
2014-Sep-09 00:33N 48°31' W 122°37'0 0.0
2014-Sep-08 23:33N 48°31' W 122°37'0 0.0
2014-Sep-08 22:33N 48°31' W 122°37'0 0.0
2014-Sep-08 21:33N 48°31' W 122°37'1 1.0
2014-Sep-08 20:33N 48°31' W 122°35'1 0.9
2014-Sep-08 19:33N 48°30' W 122°34'4 3.7
2014-Sep-08 18:33N 48°31' W 122°40'2 1.9
2014-Sep-08 17:33N 48°31' W 122°37'0 0.0
2014-Sep-08 16:33N 48°31' W 122°37'0 0.0
2014-Sep-08 15:33N 48°31' W 122°37'0 0.0
2014-Sep-08 14:33N 48°31' W 122°37'0 0.0
2014-Sep-08 13:33N 48°31' W 122°37'0 0.0
2014-Sep-08 12:33N 48°31' W 122°37'0 0.0
2014-Sep-08 11:33N 48°31' W 122°37'0 0.0
2014-Sep-08 10:33N 48°31' W 122°37'0 0.0
2014-Sep-08 09:33N 48°31' W 122°37'0 0.0
2014-Sep-08 08:33N 48°31' W 122°37'0 0.0
2014-Sep-08 07:33N 48°31' W 122°37'0 0.0
2014-Sep-08 06:33N 48°31' W 122°37'0 0.0
2014-Sep-08 05:33N 48°31' W 122°37'0 0.0
2014-Sep-08 04:33N 48°31' W 122°37'0 0.0
2014-Sep-08 03:32N 48°31' W 122°37'0 0.0
2014-Sep-08 02:33N 48°31' W 122°37'0 0.0
2014-Sep-08 01:33N 48°31' W 122°37'0 0.0
2014-Sep-08 00:33N 48°31' W 122°37'0 0.0
2014-Sep-07 23:33N 48°31' W 122°37'0 0.0
2014-Sep-07 22:34N 48°31' W 122°37'0 0.0
2014-Sep-07 21:33N 48°31' W 122°37'0 0.0
2014-Sep-07 20:33N 48°31' W 122°37'1 1.4
2014-Sep-07 19:33N 48°31' W 122°35'1 0.7
2014-Sep-07 18:34N 48°31' W 122°36'11 8.6
2014-Sep-07 17:19N 48°22' W 122°44'2211.1
2014-Sep-07 15:22N 48°01' W 122°37'1113.9
2014-Sep-07 14:33N 47°52' W 122°28'1212.2
2014-Sep-07 13:33N 47°39' W 122°27'6 5.9
2014-Sep-07 12:33N 47°36' W 122°21'0 0.4
2014-Sep-07 11:33N 47°35' W 122°21'0 0.0
2014-Sep-07 10:33N 47°35' W 122°21'0 0.0
2014-Sep-07 09:33N 47°35' W 122°21'0 0.0
2014-Sep-07 08:33N 47°35' W 122°21'0 0.0
2014-Sep-07 07:33N 47°35' W 122°21'0 0.0
2014-Sep-07 06:33N 47°35' W 122°21'0 0.0
2014-Sep-07 05:33N 47°35' W 122°21'0 0.0
2014-Sep-07 04:33N 47°35' W 122°21'0 0.0
2014-Sep-07 03:33N 47°35' W 122°21'0 0.0
2014-Sep-07 02:33N 47°35' W 122°21'0 0.0
2014-Sep-07 01:33N 47°35' W 122°21'1 0.6
2014-Sep-07 00:33N 47°35' W 122°21'0 0.1
2014-Sep-06 23:33N 47°35' W 122°21'0 0.0
2014-Sep-06 22:33N 47°35' W 122°21'1 0.6
2014-Sep-06 21:33N 47°35' W 122°21'0 0.3
2014-Sep-06 20:33N 47°35' W 122°21'0 0.0
2014-Sep-06 19:33N 47°35' W 122°21'0 0.0
2014-Sep-06 18:33N 47°35' W 122°21'0 0.0
2014-Sep-06 17:33N 47°35' W 122°21'0 0.0
2014-Sep-06 16:33N 47°35' W 122°21'  
Track history (hours):
 
Tides and Currents Weather Stations Pressure Air Temp Water Temp Dewpoint Dewpoint Depression Visibility Wind Speed Wind Dir Waves Ship Positions

Goliah

More information available from US FCC via Universal Licensing System and Coast Guard Vessel Documentation Center.

Last reported at 2014-Sep-16 16:33 UTC. Time now 2014-Sep-16 17:31 UTC.
Position N 47°36' W 122°21'.

Length 33 m; draft 4.8 m.

Type: Tug. MMSI: 366898250.

Date/timePositionNaut miles runAvg speedWind from/ knotsBaromVisibWave heightAir tempDewpointWater temp
2014-Sep-16 16:33N 47°36' W 122°21'0 0.0
2014-Sep-16 16:33N 47°36' W 122°21'1 0.5
2014-Sep-16 15:31N 47°36' W 122°21'1 0.6
2014-Sep-16 14:32N 47°36' W 122°21'0 0.2
2014-Sep-16 13:33N 47°35' W 122°21'0 0.1
2014-Sep-16 13:28N 47°35' W 122°21'0 0.0
2014-Sep-16 12:33N 47°35' W 122°21'0 0.0
2014-Sep-16 12:33N 47°35' W 122°21'0 0.0
2014-Sep-16 11:33N 47°35' W 122°21'0 0.0
2014-Sep-16 11:33N 47°35' W 122°21'5 4.7
2014-Sep-16 10:33N 47°39' W 122°26'0 8.2
2014-Sep-16 10:33N 47°39' W 122°26'7 7.4
2014-Sep-16 09:33N 47°46' W 122°24'0 7.4
2014-Sep-16 09:32N 47°46' W 122°24'1 0.9
2014-Sep-16 08:33N 47°47' W 122°24'0 0.0
2014-Sep-16 08:32N 47°47' W 122°24'1 1.3
2014-Sep-16 07:33N 47°48' W 122°25'0 2.1
2014-Sep-16 07:31N 47°48' W 122°25'5 5.3
2014-Sep-16 06:33N 47°43' W 122°26'0 9.1
2014-Sep-16 06:31N 47°43' W 122°26'6 8.3
2014-Sep-16 05:51N 47°37' W 122°24'2 8.0
2014-Sep-16 05:33N 47°36' W 122°21'0 0.5
2014-Sep-16 04:33N 47°35' W 122°21'0 0.1
2014-Sep-16 04:31N 47°35' W 122°21'0 0.0
2014-Sep-16 03:33N 47°35' W 122°21'0 0.1
2014-Sep-16 03:31N 47°35' W 122°21'0 0.0
2014-Sep-16 02:29N 47°35' W 122°21'0 0.0
2014-Sep-16 02:19N 47°35' W 122°21'0 0.0
2014-Sep-16 01:34N 47°35' W 122°21'0 0.0
2014-Sep-16 01:33N 47°35' W 122°21'0 0.0
2014-Sep-16 00:32N 47°35' W 122°21'0 0.0
2014-Sep-16 00:29N 47°35' W 122°21'0 0.3
2014-Sep-15 23:33N 47°36' W 122°21'0 2.0
2014-Sep-15 23:33N 47°36' W 122°21'0 0.2
2014-Sep-15 22:33N 47°36' W 122°21'0 0.0
2014-Sep-15 22:33N 47°36' W 122°21'0 0.4
2014-Sep-15 21:31N 47°36' W 122°21'1 0.5
2014-Sep-15 20:32N 47°36' W 122°21'0 0.3
2014-Sep-15 19:33N 47°35' W 122°21'0 0.0
2014-Sep-15 18:33N 47°35' W 122°21'0 0.0
2014-Sep-15 17:26N 47°35' W 122°21'0 0.0
2014-Sep-15 16:33N 47°35' W 122°21'0 0.0
2014-Sep-15 16:25N 47°35' W 122°21'0 0.0
2014-Sep-15 15:33N 47°35' W 122°21'0 0.1
2014-Sep-15 15:30N 47°35' W 122°21'0 0.0
2014-Sep-15 14:33N 47°35' W 122°21'0 0.9
2014-Sep-15 14:30N 47°35' W 122°21'0 0.5
2014-Sep-15 13:33N 47°36' W 122°21'0 0.3
2014-Sep-15 13:25N 47°36' W 122°21'7 7.3
2014-Sep-15 12:31N 47°29' W 122°24'010.0
2014-Sep-15 12:30N 47°29' W 122°24'10 9.5
2014-Sep-15 11:25N 47°19' W 122°26'0 0.0
2014-Sep-15 11:25N 47°19' W 122°26'7 1.9
2014-Sep-15 07:35N 47°26' W 122°25'0 6.5
2014-Sep-15 07:32N 47°26' W 122°25'0 5.7
2014-Sep-15 07:30N 47°27' W 122°25'6 6.0
2014-Sep-15 06:33N 47°32' W 122°27'0 6.6
2014-Sep-15 06:29N 47°33' W 122°27'3 6.9
2014-Sep-15 05:59N 47°36' W 122°28'3 7.2
2014-Sep-15 05:33N 47°39' W 122°29'1010.0
2014-Sep-15 04:33N 47°49' W 122°28'110.3
2014-Sep-15 04:29N 47°50' W 122°28'1010.5
2014-Sep-15 03:33N 47°58' W 122°36'2311.6
2014-Sep-15 01:33N 48°20' W 122°47'1111.3
2014-Sep-15 00:34N 48°31' W 122°41'4 4.4
2014-Sep-14 23:34N 48°31' W 122°34'4 3.8
2014-Sep-14 22:33N 48°31' W 122°40'2 2.0
2014-Sep-14 21:33N 48°31' W 122°37'0 0.0
2014-Sep-14 20:33N 48°31' W 122°37'1 1.4
2014-Sep-14 19:34N 48°31' W 122°35'1 0.6
2014-Sep-14 18:34N 48°31' W 122°35'1 1.0
2014-Sep-14 17:34N 48°31' W 122°37'0 0.0
2014-Sep-14 16:34N 48°31' W 122°37'0 0.1
2014-Sep-14 15:34N 48°31' W 122°37'8 8.4
2014-Sep-14 14:33N 48°24' W 122°44'9 8.4
2014-Sep-14 13:27N 48°15' W 122°47'8 6.2
2014-Sep-14 12:08N 48°08' W 122°41'7 7.3
2014-Sep-14 11:13N 48°02' W 122°38'5 8.1
2014-Sep-14 10:34N 47°58' W 122°33'8 7.8
2014-Sep-14 09:33N 47°51' W 122°27'8 8.1
2014-Sep-14 08:33N 47°43' W 122°26'7 7.2
2014-Sep-14 07:33N 47°36' W 122°22'0 0.2
2014-Sep-14 06:33N 47°36' W 122°22'1 1.0
2014-Sep-14 05:33N 47°35' W 122°21'0 0.0
2014-Sep-14 04:33N 47°35' W 122°21'0 0.0
2014-Sep-14 03:34N 47°35' W 122°21'0 0.0
2014-Sep-14 02:33N 47°35' W 122°21'0 0.4
2014-Sep-14 01:33N 47°36' W 122°21'0 0.1
2014-Sep-13 21:33N 47°35' W 122°21'0 0.0
2014-Sep-13 20:34N 47°35' W 122°21'0 0.0
2014-Sep-13 19:34N 47°35' W 122°21'0 0.0
2014-Sep-13 18:33N 47°35' W 122°21'0 0.0
2014-Sep-13 17:33N 47°35' W 122°21'0 0.0
2014-Sep-13 16:33N 47°35' W 122°21'0 0.0
2014-Sep-13 15:33N 47°35' W 122°21'0 0.0
2014-Sep-13 14:33N 47°35' W 122°21'0 0.0
2014-Sep-13 13:33N 47°35' W 122°21'0 0.0
2014-Sep-13 12:34N 47°35' W 122°21'0 0.3
2014-Sep-13 11:34N 47°35' W 122°21'0 0.2
2014-Sep-13 10:33N 47°35' W 122°21'0 0.0
2014-Sep-13 09:34N 47°35' W 122°21'0 0.0
2014-Sep-13 08:34N 47°35' W 122°21'0 0.1
2014-Sep-13 07:34N 47°35' W 122°21'2 1.9
2014-Sep-13 06:33N 47°37' W 122°22'2 1.6
2014-Sep-13 05:34N 47°35' W 122°21'5 4.7
2014-Sep-13 04:34N 47°32' W 122°25'8 7.6
2014-Sep-13 03:34N 47°24' W 122°22'7 6.5
2014-Sep-13 02:33N 47°19' W 122°27'4 3.8
2014-Sep-13 01:33N 47°16' W 122°23'1 1.1
2014-Sep-13 00:34N 47°17' W 122°25'2 1.4
2014-Sep-12 23:27N 47°16' W 122°23'5 5.3
2014-Sep-12 22:34N 47°19' W 122°28'1010.1
2014-Sep-12 21:34N 47°29' W 122°24'7 6.8
2014-Sep-12 20:34N 47°35' W 122°21'0 0.0
2014-Sep-12 19:34N 47°35' W 122°21'0 0.0
2014-Sep-12 18:33N 47°35' W 122°21'0 0.0
2014-Sep-12 17:33N 47°35' W 122°21'0 0.0
2014-Sep-12 16:33N 47°35' W 122°21'0 0.0
2014-Sep-12 15:33N 47°35' W 122°21'0 0.0
2014-Sep-12 14:33N 47°35' W 122°21'0 0.0
2014-Sep-12 13:34N 47°35' W 122°21'0 0.0
2014-Sep-12 12:34N 47°35' W 122°21'0 0.0
2014-Sep-12 11:34N 47°35' W 122°21'0 0.0
2014-Sep-12 10:33N 47°35' W 122°21'0 0.0
2014-Sep-12 09:34N 47°35' W 122°21'0 0.0
2014-Sep-12 08:33N 47°35' W 122°21'0 0.0
2014-Sep-12 07:33N 47°35' W 122°21'0 0.0
2014-Sep-12 06:33N 47°35' W 122°21'0 0.2
2014-Sep-12 05:33N 47°35' W 122°21'2 1.7
2014-Sep-12 04:34N 47°36' W 122°23'10 9.8
2014-Sep-12 03:34N 47°27' W 122°23'9 9.3
2014-Sep-12 02:34N 47°18' W 122°27'3 3.0
2014-Sep-12 01:33N 47°16' W 122°23'2 1.7
2014-Sep-12 00:34N 47°17' W 122°25'9 9.3
2014-Sep-11 23:34N 47°26' W 122°23'10 9.6
2014-Sep-11 22:34N 47°36' W 122°21'6 5.6
2014-Sep-11 21:34N 47°39' W 122°28'1111.4
2014-Sep-11 20:34N 47°50' W 122°29'1110.8
2014-Sep-11 19:32N 47°60' W 122°37'10 9.3
2014-Sep-11 18:30N 48°08' W 122°44'9 9.4
2014-Sep-11 17:33N 48°17' W 122°48'1212.3
2014-Sep-11 16:33N 48°29' W 122°43'5 5.1
2014-Sep-11 15:33N 48°31' W 122°37'0 0.0
2014-Sep-11 14:33N 48°31' W 122°37'0 0.0
2014-Sep-11 13:33N 48°31' W 122°37'0 0.0
2014-Sep-11 12:33N 48°31' W 122°37'0 0.0
2014-Sep-11 11:33N 48°31' W 122°37'0 0.3
2014-Sep-11 10:33N 48°31' W 122°36'7 7.1
2014-Sep-11 09:33N 48°38' W 122°39'10 9.3
2014-Sep-11 08:31N 48°47' W 122°45'5 4.7
2014-Sep-11 07:33N 48°52' W 122°46'4 3.7
2014-Sep-11 06:33N 48°48' W 122°45'8 7.7
2014-Sep-11 05:33N 48°41' W 122°42'9 9.0
2014-Sep-11 04:33N 48°33' W 122°34'3 2.6
2014-Sep-11 03:33N 48°31' W 122°35'3 2.8
2014-Sep-11 02:33N 48°31' W 122°39'1 1.4
2014-Sep-11 01:33N 48°31' W 122°37'0 0.0
2014-Sep-11 00:33N 48°31' W 122°37'0 0.0
2014-Sep-10 23:33N 48°31' W 122°37'0 0.0
2014-Sep-10 22:33N 48°31' W 122°37'0 0.0
2014-Sep-10 21:33N 48°31' W 122°37'0 0.0
2014-Sep-10 20:33N 48°31' W 122°37'0 0.0
2014-Sep-10 19:33N 48°31' W 122°37'0 0.0
2014-Sep-10 18:33N 48°31' W 122°37'0 0.0
2014-Sep-10 17:33N 48°31' W 122°37'0 0.0
2014-Sep-10 16:33N 48°31' W 122°37'0 0.0
2014-Sep-10 15:33N 48°31' W 122°37'0 0.0
2014-Sep-10 14:33N 48°31' W 122°37'1 1.4
2014-Sep-10 13:33N 48°31' W 122°35'1 0.6
2014-Sep-10 12:33N 48°31' W 122°34'2 1.9
2014-Sep-10 11:33N 48°31' W 122°37'0 0.0
2014-Sep-10 10:33N 48°31' W 122°37'0 0.0
2014-Sep-10 09:33N 48°31' W 122°37'0 0.0
2014-Sep-10 08:33N 48°31' W 122°37'0 0.0
2014-Sep-10 07:33N 48°31' W 122°37'0 0.0
2014-Sep-10 06:33N 48°31' W 122°37'5 5.3
2014-Sep-10 05:33N 48°28' W 122°43'23 7.6
2014-Sep-10 02:31N 48°14' W 123°11'9 8.8
2014-Sep-10 01:33N 48°09' W 123°21'3 3.1
2014-Sep-10 00:33N 48°08' W 123°26'1 1.0
2014-Sep-09 23:33N 48°08' W 123°27'0 0.0
2014-Sep-09 22:33N 48°08' W 123°27'0 0.0
2014-Sep-09 21:33N 48°08' W 123°27'0 0.0
2014-Sep-09 20:33N 48°08' W 123°27'0 0.0
2014-Sep-09 19:32N 48°08' W 123°27'1 0.6
2014-Sep-09 18:33N 48°08' W 123°26'1 1.5
2014-Sep-09 17:33N 48°08' W 123°24'1 1.4
2014-Sep-09 16:32N 48°09' W 123°24'1 1.4
2014-Sep-09 15:33N 48°08' W 123°25'2 1.6
2014-Sep-09 14:33N 48°09' W 123°23'4 4.4
2014-Sep-09 13:33N 48°12' W 123°18'8 8.3
2014-Sep-09 12:33N 48°16' W 123°08'25 8.1
2014-Sep-09 09:29N 48°31' W 122°38'1 0.8
2014-Sep-09 08:27N 48°31' W 122°37'0 0.0
2014-Sep-09 06:33N 48°31' W 122°37'0 0.0
2014-Sep-09 05:33N 48°31' W 122°37'0 0.0
2014-Sep-09 04:33N 48°31' W 122°37'0 0.0
2014-Sep-09 03:33N 48°31' W 122°37'0 0.0
2014-Sep-09 02:33N 48°31' W 122°37'0 0.0
2014-Sep-09 01:33N 48°31' W 122°37'0 0.0
2014-Sep-09 00:33N 48°31' W 122°37'0 0.0
2014-Sep-08 23:33N 48°31' W 122°37'0 0.0
2014-Sep-08 22:33N 48°31' W 122°37'0 0.0
2014-Sep-08 21:33N 48°31' W 122°37'1 1.0
2014-Sep-08 20:33N 48°31' W 122°35'1 0.9
2014-Sep-08 19:33N 48°30' W 122°34'4 3.7
2014-Sep-08 18:33N 48°31' W 122°40'2 1.9
2014-Sep-08 17:33N 48°31' W 122°37'0 0.0
2014-Sep-08 16:33N 48°31' W 122°37'0 0.0
2014-Sep-08 15:33N 48°31' W 122°37'0 0.0
2014-Sep-08 14:33N 48°31' W 122°37'0 0.0
2014-Sep-08 13:33N 48°31' W 122°37'0 0.0
2014-Sep-08 12:33N 48°31' W 122°37'0 0.0
2014-Sep-08 11:33N 48°31' W 122°37'0 0.0
2014-Sep-08 10:33N 48°31' W 122°37'0 0.0
2014-Sep-08 09:33N 48°31' W 122°37'0 0.0
2014-Sep-08 08:33N 48°31' W 122°37'0 0.0
2014-Sep-08 07:33N 48°31' W 122°37'0 0.0
2014-Sep-08 06:33N 48°31' W 122°37'0 0.0
2014-Sep-08 05:33N 48°31' W 122°37'0 0.0
2014-Sep-08 04:33N 48°31' W 122°37'0 0.0
2014-Sep-08 03:32N 48°31' W 122°37'0 0.0
2014-Sep-08 02:33N 48°31' W 122°37'0 0.0
2014-Sep-08 01:33N 48°31' W 122°37'0 0.0
2014-Sep-08 00:33N 48°31' W 122°37'0 0.0
2014-Sep-07 23:33N 48°31' W 122°37'0 0.0
2014-Sep-07 22:34N 48°31' W 122°37'0 0.0
2014-Sep-07 21:33N 48°31' W 122°37'0 0.0
2014-Sep-07 20:33N 48°31' W 122°37'1 1.4
2014-Sep-07 19:33N 48°31' W 122°35'1 0.7
2014-Sep-07 18:34N 48°31' W 122°36'11 8.6
2014-Sep-07 17:19N 48°22' W 122°44'2211.1
2014-Sep-07 15:22N 48°01' W 122°37'1113.9
2014-Sep-07 14:33N 47°52' W 122°28'1212.2
2014-Sep-07 13:33N 47°39' W 122°27'6 5.9
2014-Sep-07 12:33N 47°36' W 122°21'0 0.4
2014-Sep-07 11:33N 47°35' W 122°21'0 0.0
2014-Sep-07 10:33N 47°35' W 122°21'0 0.0
2014-Sep-07 09:33N 47°35' W 122°21'0 0.0
2014-Sep-07 08:33N 47°35' W 122°21'0 0.0
2014-Sep-07 07:33N 47°35' W 122°21'0 0.0
2014-Sep-07 06:33N 47°35' W 122°21'0 0.0
2014-Sep-07 05:33N 47°35' W 122°21'0 0.0
2014-Sep-07 04:33N 47°35' W 122°21'0 0.0
2014-Sep-07 03:33N 47°35' W 122°21'0 0.0
2014-Sep-07 02:33N 47°35' W 122°21'0 0.0
2014-Sep-07 01:33N 47°35' W 122°21'1 0.6
2014-Sep-07 00:33N 47°35' W 122°21'0 0.1
2014-Sep-06 23:33N 47°35' W 122°21'0 0.0
2014-Sep-06 22:33N 47°35' W 122°21'1 0.6
2014-Sep-06 21:33N 47°35' W 122°21'0 0.3
2014-Sep-06 20:33N 47°35' W 122°21'0 0.0
2014-Sep-06 19:33N 47°35' W 122°21'0 0.0
2014-Sep-06 18:33N 47°35' W 122°21'0 0.0
2014-Sep-06 17:33N 47°35' W 122°21'0 0.0
2014-Sep-06 16:33N 47°35' W 122°21'  

Dump ship's entire track history